createdAt,value
2019-02-09T00:00:36.928Z,66.26
2019-02-09T00:01:17.530Z,66.45
2019-02-09T00:01:58.134Z,66.45
2019-02-09T00:02:38.736Z,66.45
2019-02-09T00:03:19.326Z,66.26
2019-02-09T00:03:59.927Z,66.26
2019-02-09T00:04:40.518Z,66.26
2019-02-09T00:05:21.102Z,66.61
2019-02-09T00:06:01.715Z,66.22
2019-02-09T00:06:42.302Z,66.35
2019-02-09T00:07:22.886Z,66.64
2019-02-09T00:08:03.503Z,66.51
2019-02-09T00:08:44.096Z,66.71
2019-02-09T00:09:24.694Z,66.22
2019-02-09T00:10:05.279Z,66.45
2019-02-09T00:10:45.900Z,66.06
2019-02-09T00:11:26.502Z,65.94
2019-02-09T00:12:07.102Z,66.26
2019-02-09T00:12:47.714Z,66.55
2019-02-09T00:13:28.295Z,66.26
2019-02-09T00:14:08.905Z,66.06
2019-02-09T00:14:49.497Z,66.45
2019-02-09T00:15:30.106Z,66.45
2019-02-09T00:16:10.707Z,66.22
2019-02-09T00:16:51.320Z,66.22
2019-02-09T00:17:31.920Z,66.26
2019-02-09T00:18:12.528Z,66.45
2019-02-09T00:18:53.116Z,66.26
2019-02-09T00:19:33.698Z,66.06
2019-02-09T00:20:14.290Z,66.22
2019-02-09T00:20:54.888Z,66.22
2019-02-09T00:21:35.489Z,66.22
2019-02-09T00:22:16.096Z,66.03
2019-02-09T00:22:56.684Z,66.22
2019-02-09T00:23:37.284Z,66.22
2019-02-09T00:24:17.903Z,66.26
2019-02-09T00:24:58.502Z,66.22
2019-02-09T00:25:39.102Z,66.45
2019-02-09T00:26:19.713Z,65.97
2019-02-09T00:27:00.318Z,66.26
2019-02-09T00:27:40.940Z,66.16
2019-02-09T00:28:21.534Z,66.06
2019-02-09T00:29:02.152Z,66.03
2019-02-09T00:29:46.235Z,65.65
2019-02-09T00:30:23.382Z,66.06
2019-02-09T00:31:04.020Z,66.03
2019-02-09T00:31:44.611Z,65.84
2019-02-09T00:32:25.214Z,65.84
2019-02-09T00:33:05.816Z,65.97
2019-02-09T00:33:46.456Z,66.03
2019-02-09T00:34:28.069Z,65.78
2019-02-09T00:35:07.630Z,65.97
2019-02-09T00:35:48.276Z,65.84
2019-02-09T00:36:28.895Z,66.13
2019-02-09T00:37:09.521Z,66.06
2019-02-09T00:37:50.126Z,65.68
2019-02-09T00:38:30.785Z,66.22
2019-02-09T00:39:11.471Z,66.26
2019-02-09T00:39:52.066Z,65.84
2019-02-09T00:40:32.718Z,66.03
2019-02-09T00:41:13.311Z,65.46
2019-02-09T00:41:53.952Z,65.94
2019-02-09T00:42:34.552Z,65.94
2019-02-09T00:43:15.207Z,66.16
2019-02-09T00:43:55.841Z,66.03
2019-02-09T00:44:36.430Z,65.94
2019-02-09T00:45:17.026Z,66.26
2019-02-09T00:45:57.609Z,65.75
2019-02-09T00:46:38.206Z,65.68
2019-02-09T00:47:18.824Z,65.75
2019-02-09T00:47:59.457Z,65.84
2019-02-09T00:48:40.043Z,65.94
2019-02-09T00:49:20.636Z,65.94
2019-02-09T00:50:01.225Z,65.49
2019-02-09T00:50:41.799Z,65.88
2019-02-09T00:51:22.392Z,65.65
2019-02-09T00:52:03.027Z,65.94
2019-02-09T00:52:43.627Z,65.65
2019-02-09T00:53:24.268Z,65.65
2019-02-09T00:54:04.860Z,65.84
2019-02-09T00:54:45.458Z,65.94
2019-02-09T00:55:26.056Z,65.97
2019-02-09T00:56:06.648Z,66.16
2019-02-09T00:56:47.247Z,65.65
2019-02-09T00:57:27.848Z,66.16
2019-02-09T00:58:08.432Z,65.84
2019-02-09T00:58:49.043Z,65.46
2019-02-09T00:59:29.660Z,66.03
2019-02-09T01:00:10.259Z,65.46
2019-02-09T01:00:50.858Z,65.55
2019-02-09T01:01:31.456Z,66.03
2019-02-09T01:02:12.047Z,65.46
2019-02-09T01:02:52.653Z,66.22
2019-02-09T01:03:33.253Z,65.49
2019-02-09T01:04:13.866Z,65.46
2019-02-09T01:04:54.506Z,65.68
2019-02-09T01:05:35.160Z,65.49
2019-02-09T01:06:15.822Z,65.55
2019-02-09T01:06:56.436Z,65.65
2019-02-09T01:07:37.054Z,66.16
2019-02-09T01:08:17.672Z,65.46
2019-02-09T01:08:58.320Z,65.97
2019-02-09T01:09:38.952Z,65.49
2019-02-09T01:10:19.642Z,65.46
2019-02-09T01:11:00.266Z,65.65
2019-02-09T01:11:40.870Z,66.03
2019-02-09T01:12:21.510Z,66.03
2019-02-09T01:13:02.095Z,66.03
2019-02-09T01:13:42.892Z,65.68
2019-02-09T01:15:38.652Z,65.78
2019-02-09T01:16:19.278Z,66.22
2019-02-09T01:16:59.892Z,65.59
2019-02-09T01:17:40.490Z,65.94
2019-02-09T01:18:21.130Z,65.68
2019-02-09T01:19:01.726Z,65.46
2019-02-09T01:19:42.302Z,65.46
2019-02-09T01:20:22.892Z,65.49
2019-02-09T01:21:03.492Z,66.13
2019-02-09T01:21:44.094Z,65.49
2019-02-09T01:22:24.697Z,65.46
2019-02-09T01:23:05.304Z,66.03
2019-02-09T01:23:45.902Z,66.26
2019-02-09T01:24:26.502Z,65.94
2019-02-09T01:25:07.090Z,65.75
2019-02-09T01:25:47.674Z,65.65
2019-02-09T01:26:28.262Z,65.65
2019-02-09T01:27:08.840Z,65.46
2019-02-09T01:27:49.436Z,65.46
2019-02-09T01:28:30.040Z,65.68
2019-02-09T01:29:10.654Z,65.68
2019-02-09T01:29:51.267Z,65.46
2019-02-09T01:30:31.866Z,65.46
2019-02-09T01:31:12.456Z,65.46
2019-02-09T01:31:53.047Z,65.65
2019-02-09T01:32:33.652Z,65.68
2019-02-09T01:33:14.237Z,65.49
2019-02-09T01:33:54.837Z,65.49
2019-02-09T01:34:35.432Z,65.75
2019-02-09T01:35:16.020Z,65.49
2019-02-09T01:35:56.630Z,65.49
2019-02-09T01:36:37.225Z,66.03
2019-02-09T01:37:17.824Z,65.49
2019-02-09T01:37:58.425Z,65.49
2019-02-09T01:39:49.282Z,65.65
2019-02-09T01:40:29.892Z,66.03
2019-02-09T01:41:10.492Z,65.46
2019-02-09T01:41:51.090Z,65.49
2019-02-09T01:42:31.718Z,65.46
2019-02-09T01:43:12.325Z,65.68
2019-02-09T01:43:52.928Z,65.46
2019-02-09T01:44:33.519Z,65.46
2019-02-09T01:45:14.132Z,65.46
2019-02-09T01:45:54.732Z,65.46
2019-02-09T01:46:35.367Z,66.06
2019-02-09T01:47:15.987Z,65.49
2019-02-09T01:47:56.567Z,65.68
2019-02-09T01:48:37.178Z,65.46
2019-02-09T01:49:17.770Z,65.55
2019-02-09T01:49:58.356Z,65.65
2019-02-09T01:50:38.958Z,66.13
2019-02-09T01:51:19.562Z,65.59
2019-02-09T01:52:00.324Z,65.46
2019-02-09T01:52:40.926Z,65.65
2019-02-09T01:53:21.520Z,66.13
2019-02-09T01:54:02.108Z,65.46
2019-02-09T01:54:42.743Z,65.75
2019-02-09T01:55:23.282Z,65.68
2019-02-09T01:56:03.874Z,65.65
2019-02-09T01:56:44.478Z,65.55
2019-02-09T01:57:25.070Z,65.75
2019-02-09T01:58:05.658Z,65.75
2019-02-09T01:58:46.260Z,65.75
2019-02-09T01:59:26.894Z,65.65
2019-02-09T02:00:10.522Z,65.46
2019-02-09T02:00:48.062Z,65.55
2019-02-09T02:01:28.684Z,65.46
2019-02-09T02:02:09.270Z,65.46
2019-02-09T02:02:49.862Z,65.46
2019-02-09T02:03:30.456Z,65.46
2019-02-09T02:04:11.050Z,65.46
2019-02-09T02:04:51.654Z,65.46
2019-02-09T02:05:32.244Z,65.46
2019-02-09T02:06:12.842Z,65.65
2019-02-09T02:06:53.452Z,65.55
2019-02-09T02:07:34.044Z,65.46
2019-02-09T02:08:14.651Z,65.75
2019-02-09T02:08:55.253Z,65.65
2019-02-09T02:09:35.847Z,65.46
2019-02-09T02:10:16.455Z,65.75
2019-02-09T02:10:57.064Z,65.65
2019-02-09T02:11:37.652Z,65.75
2019-02-09T02:12:18.265Z,65.49
2019-02-09T02:12:58.892Z,65.55
2019-02-09T02:13:39.502Z,65.46
2019-02-09T02:14:20.088Z,65.46
2019-02-09T02:15:00.678Z,65.65
2019-02-09T02:15:41.268Z,65.65
2019-02-09T02:16:21.868Z,65.65
2019-02-09T02:17:02.556Z,66.13
2019-02-09T02:17:43.147Z,66.13
2019-02-09T02:18:23.747Z,65.65
2019-02-09T02:19:04.352Z,66.03
2019-02-09T02:19:44.980Z,66.13
2019-02-09T02:20:25.590Z,65.65
2019-02-09T02:21:06.196Z,65.65
2019-02-09T02:21:46.796Z,65.94
2019-02-09T02:22:27.398Z,65.46
2019-02-09T02:23:08.008Z,65.94
2019-02-09T02:23:48.600Z,66.03
2019-02-09T02:24:29.196Z,65.46
2019-02-09T02:25:09.904Z,66.03
2019-02-09T02:25:50.472Z,65.94
2019-02-09T02:26:31.084Z,65.94
2019-02-09T02:27:11.705Z,66.03
2019-02-09T02:27:52.317Z,66.13
2019-02-09T02:28:32.908Z,65.75
2019-02-09T02:29:13.500Z,65.75
2019-02-09T02:29:54.090Z,65.65
2019-02-09T02:30:34.702Z,66.03
2019-02-09T02:31:15.288Z,65.46
2019-02-09T02:31:55.881Z,65.94
2019-02-09T02:32:36.482Z,66.13
2019-02-09T02:33:17.087Z,65.84
2019-02-09T02:33:57.682Z,66.42
2019-02-09T02:34:38.338Z,65.75
2019-02-09T02:35:18.941Z,65.94
2019-02-09T02:35:59.543Z,65.65
2019-02-09T02:36:40.147Z,65.65
2019-02-09T02:37:20.742Z,65.84
2019-02-09T02:38:01.377Z,66.22
2019-02-09T02:38:41.968Z,66.13
2019-02-09T02:39:22.593Z,65.84
2019-02-09T02:40:03.213Z,66.22
2019-02-09T02:40:43.817Z,65.75
2019-02-09T02:41:24.417Z,66.13
2019-02-09T02:42:05.014Z,65.94
2019-02-09T02:42:45.618Z,65.65
2019-02-09T02:43:26.213Z,65.84
2019-02-09T02:44:06.820Z,66.32
2019-02-09T02:44:47.410Z,66.13
2019-02-09T02:45:28.016Z,66.03
2019-02-09T02:46:08.616Z,65.65
2019-02-09T02:46:49.212Z,65.65
2019-02-09T02:47:29.816Z,66.13
2019-02-09T02:48:10.428Z,66.13
2019-02-09T02:48:51.022Z,66.22
2019-02-09T02:49:31.640Z,66.61
2019-02-09T02:50:12.232Z,66.42
2019-02-09T02:50:52.820Z,66.22
2019-02-09T02:51:33.435Z,66.22
2019-02-09T02:52:14.047Z,66.42
2019-02-09T02:52:54.644Z,66.13
2019-02-09T02:53:35.240Z,66.42
2019-02-09T02:54:15.837Z,66.71
2019-02-09T02:54:56.432Z,66.42
2019-02-09T02:55:37.023Z,66.32
2019-02-09T02:56:17.598Z,66.22
2019-02-09T02:56:58.192Z,66.42
2019-02-09T02:57:38.790Z,66.03
2019-02-09T02:58:19.466Z,66.03
2019-02-09T02:59:00.066Z,65.94
2019-02-09T02:59:40.659Z,66.22
2019-02-09T03:00:21.256Z,66.22
2019-02-09T03:01:01.852Z,66.42
2019-02-09T03:01:42.444Z,66.22
2019-02-09T03:02:23.039Z,66.61
2019-02-09T03:03:03.630Z,66.42
2019-02-09T03:03:44.229Z,66.42
2019-02-09T03:04:24.830Z,65.94
2019-02-09T03:05:05.434Z,66.03
2019-02-09T03:05:46.035Z,65.65
2019-02-09T03:06:26.635Z,65.94
2019-02-09T03:07:07.224Z,65.55
2019-02-09T03:07:47.831Z,66.42
2019-02-09T03:08:28.424Z,65.84
2019-02-09T03:09:09.026Z,66.32
2019-02-09T03:09:49.638Z,65.75
2019-02-09T03:10:30.221Z,65.94
2019-02-09T03:11:10.826Z,66.22
2019-02-09T03:11:51.422Z,66.22
2019-02-09T03:12:32.010Z,66.03
2019-02-09T03:13:12.586Z,66.42
2019-02-09T03:13:53.180Z,65.94
2019-02-09T03:14:33.787Z,65.94
2019-02-09T03:15:14.442Z,66.22
2019-02-09T03:15:55.039Z,66.22
2019-02-09T03:16:35.673Z,66.22
2019-02-09T03:17:16.306Z,66.32
2019-02-09T03:17:56.929Z,66.71
2019-02-09T03:18:37.518Z,66.22
2019-02-09T03:19:19.185Z,66.22
2019-02-09T03:19:58.704Z,66.22
2019-02-09T03:20:39.300Z,66.13
2019-02-09T03:21:19.905Z,65.75
2019-02-09T03:22:00.499Z,65.84
2019-02-09T03:22:41.112Z,66.22
2019-02-09T03:23:21.722Z,66.32
2019-02-09T03:24:02.316Z,66.51
2019-02-09T03:24:42.927Z,65.94
2019-02-09T03:25:23.547Z,66.32
2019-02-09T03:26:04.174Z,66.22
2019-02-09T03:26:44.787Z,66.03
2019-02-09T03:27:25.398Z,65.75
2019-02-09T03:28:05.978Z,65.94
2019-02-09T03:28:46.582Z,65.65
2019-02-09T03:29:27.179Z,65.65
2019-02-09T03:30:07.781Z,65.46
2019-02-09T03:30:49.165Z,66.22
2019-02-09T03:31:28.989Z,66.13
2019-02-09T03:32:10.921Z,65.84
2019-02-09T03:32:50.233Z,65.84
2019-02-09T03:33:30.783Z,65.75
2019-02-09T03:34:11.394Z,65.65
2019-02-09T03:34:52.002Z,65.75
2019-02-09T03:35:32.592Z,66.03
2019-02-09T03:36:13.212Z,66.13
2019-02-09T03:36:53.806Z,66.13
2019-02-09T03:37:34.399Z,66.22
2019-02-09T03:38:14.994Z,66.03
2019-02-09T03:38:55.605Z,66.32
2019-02-09T03:39:36.207Z,65.94
2019-02-09T03:40:16.807Z,66.03
2019-02-09T03:40:57.412Z,65.65
2019-02-09T03:41:38.008Z,66.03
2019-02-09T03:42:18.626Z,65.94
2019-02-09T03:42:59.234Z,65.94
2019-02-09T03:43:39.826Z,66.22
2019-02-09T03:44:20.420Z,65.65
2019-02-09T03:45:01.065Z,66.03
2019-02-09T03:45:41.610Z,66.13
2019-02-09T03:46:22.201Z,65.94
2019-02-09T03:47:02.784Z,66.03
2019-02-09T03:47:43.378Z,65.75
2019-02-09T03:48:23.966Z,65.84
2019-02-09T03:49:04.594Z,65.84
2019-02-09T03:49:45.192Z,65.46
2019-02-09T03:50:25.796Z,66.22
2019-02-09T03:51:06.394Z,66.13
2019-02-09T03:51:46.991Z,66.03
2019-02-09T03:52:27.598Z,65.65
2019-02-09T03:53:08.195Z,66.03
2019-02-09T03:53:48.789Z,66.03
2019-02-09T03:54:29.390Z,66.13
2019-02-09T03:55:09.985Z,65.65
2019-02-09T03:55:50.595Z,65.46
2019-02-09T03:56:31.173Z,65.46
2019-02-09T03:57:11.770Z,66.32
2019-02-09T03:57:52.366Z,66.13
2019-02-09T03:58:32.948Z,66.03
2019-02-09T03:59:13.555Z,66.13
2019-02-09T03:59:54.155Z,65.75
2019-02-09T04:00:34.757Z,66.03
2019-02-09T04:01:15.374Z,66.22
2019-02-09T04:01:55.969Z,65.46
2019-02-09T04:02:36.576Z,65.65
2019-02-09T04:03:17.167Z,65.65
2019-02-09T04:03:57.756Z,65.46
2019-02-09T04:04:38.362Z,66.32
2019-02-09T04:05:18.959Z,65.46
2019-02-09T04:05:59.542Z,65.46
2019-02-09T04:06:40.126Z,65.65
2019-02-09T04:07:20.718Z,66.13
2019-02-09T04:08:01.325Z,66.13
2019-02-09T04:08:41.911Z,66.22
2019-02-09T04:09:22.496Z,65.46
2019-02-09T04:10:03.105Z,65.65
2019-02-09T04:10:43.696Z,65.46
2019-02-09T04:11:24.311Z,65.65
2019-02-09T04:12:04.919Z,66.03
2019-02-09T04:12:45.503Z,66.22
2019-02-09T04:13:26.104Z,66.13
2019-02-09T04:14:06.705Z,66.03
2019-02-09T04:14:47.295Z,66.13
2019-02-09T04:15:27.917Z,65.65
2019-02-09T04:16:08.509Z,65.65
2019-02-09T04:16:49.113Z,65.65
2019-02-09T04:17:29.720Z,65.46
2019-02-09T04:18:10.303Z,65.46
2019-02-09T04:18:50.882Z,65.46
2019-02-09T04:19:31.475Z,65.65
2019-02-09T04:20:12.082Z,65.55
2019-02-09T04:20:52.680Z,65.55
2019-02-09T04:21:33.274Z,65.55
2019-02-09T04:22:13.867Z,65.65
2019-02-09T04:22:54.488Z,65.55
2019-02-09T04:23:35.101Z,65.46
2019-02-09T04:24:15.695Z,65.84
2019-02-09T04:24:56.305Z,65.55
2019-02-09T04:25:36.894Z,65.46
2019-02-09T04:26:17.507Z,65.46
2019-02-09T04:26:58.106Z,65.55
2019-02-09T04:27:38.716Z,65.46
2019-02-09T04:28:19.307Z,65.65
2019-02-09T04:28:59.903Z,65.55
2019-02-09T04:29:40.498Z,65.65
2019-02-09T04:30:21.107Z,65.75
2019-02-09T04:31:05.692Z,65.46
2019-02-09T04:31:42.344Z,65.65
2019-02-09T04:32:22.945Z,65.65
2019-02-09T04:33:03.525Z,65.65
2019-02-09T04:33:44.148Z,65.65
2019-02-09T04:34:24.744Z,65.65
2019-02-09T04:35:05.343Z,65.55
2019-02-09T04:35:45.941Z,65.55
2019-02-09T04:36:26.563Z,65.55
2019-02-09T04:37:07.159Z,65.46
2019-02-09T04:37:47.756Z,66.03
2019-02-09T04:38:28.359Z,65.46
2019-02-09T04:39:08.962Z,65.46
2019-02-09T04:39:49.555Z,65.65
2019-02-09T04:40:30.154Z,65.46
2019-02-09T04:41:10.789Z,65.75
2019-02-09T04:41:51.378Z,66.03
2019-02-09T04:42:31.972Z,65.46
2019-02-09T04:43:12.568Z,65.65
2019-02-09T04:43:53.158Z,65.65
2019-02-09T04:44:33.773Z,65.55
2019-02-09T04:45:14.366Z,65.55
2019-02-09T04:45:54.975Z,65.65
2019-02-09T04:46:35.572Z,65.55
2019-02-09T04:47:16.157Z,65.46
2019-02-09T04:47:56.736Z,65.55
2019-02-09T04:48:37.351Z,65.65
2019-02-09T04:49:17.966Z,65.65
2019-02-09T04:49:58.559Z,65.55
2019-02-09T04:50:39.147Z,65.55
2019-02-09T04:51:19.739Z,65.75
2019-02-09T04:52:00.363Z,65.55
2019-02-09T04:52:40.956Z,65.65
2019-02-09T04:53:21.540Z,65.65
2019-02-09T04:54:02.149Z,65.55
2019-02-09T04:54:42.738Z,65.46
2019-02-09T04:55:23.362Z,65.55
2019-02-09T04:56:03.962Z,65.94
2019-02-09T04:56:44.553Z,65.65
2019-02-09T04:57:25.152Z,65.65
2019-02-09T04:58:05.736Z,65.84
2019-02-09T04:58:46.338Z,65.65
2019-02-09T04:59:26.911Z,65.65
2019-02-09T05:00:07.500Z,66.03
2019-02-09T05:00:48.104Z,65.84
2019-02-09T05:01:28.730Z,65.65
2019-02-09T05:02:09.318Z,65.46
2019-02-09T05:02:49.896Z,66.03
2019-02-09T05:03:30.515Z,65.75
2019-02-09T05:04:11.131Z,66.03
2019-02-09T05:04:51.731Z,65.55
2019-02-09T05:05:32.330Z,66.03
2019-02-09T05:06:12.938Z,65.55
2019-02-09T05:06:53.540Z,65.75
2019-02-09T05:07:34.131Z,65.84
2019-02-09T05:08:14.728Z,65.84
2019-02-09T05:08:55.323Z,65.84
2019-02-09T05:09:35.935Z,65.46
2019-02-09T05:10:16.548Z,65.75
2019-02-09T05:10:57.147Z,65.46
2019-02-09T05:11:37.744Z,66.03
2019-02-09T05:12:18.352Z,65.94
2019-02-09T05:12:58.975Z,65.75
2019-02-09T05:13:39.557Z,65.46
2019-02-09T05:14:20.167Z,65.46
2019-02-09T05:15:00.764Z,65.65
2019-02-09T05:15:41.354Z,65.65
2019-02-09T05:16:21.940Z,65.84
2019-02-09T05:17:02.535Z,65.75
2019-02-09T05:17:43.129Z,65.55
2019-02-09T05:18:23.721Z,65.75
2019-02-09T05:19:04.312Z,65.65
2019-02-09T05:19:44.913Z,65.65
2019-02-09T05:20:25.623Z,65.55
2019-02-09T05:21:06.163Z,65.46
2019-02-09T05:21:46.754Z,65.55
2019-02-09T05:22:27.358Z,65.46
2019-02-09T05:23:07.961Z,65.46
2019-02-09T05:23:48.590Z,65.75
2019-02-09T05:24:29.148Z,65.65
2019-02-09T05:25:09.729Z,65.75
2019-02-09T05:25:50.319Z,65.55
2019-02-09T05:26:30.920Z,65.65
2019-02-09T05:27:11.509Z,65.55
2019-02-09T05:27:52.120Z,65.55
2019-02-09T05:28:32.703Z,65.55
2019-02-09T05:29:13.286Z,65.65
2019-02-09T05:29:53.875Z,65.65
2019-02-09T05:30:34.483Z,65.65
2019-02-09T05:31:22.786Z,65.46
2019-02-09T05:31:55.685Z,65.46
2019-02-09T05:32:36.331Z,66.03
2019-02-09T05:33:16.919Z,65.46
2019-02-09T05:33:57.508Z,65.46
2019-02-09T05:34:38.091Z,65.46
2019-02-09T05:35:18.673Z,65.46
2019-02-09T05:35:59.278Z,65.46
2019-02-09T05:36:39.875Z,65.46
2019-02-09T05:37:20.553Z,65.55
2019-02-09T05:38:01.109Z,65.75
2019-02-09T05:38:41.711Z,65.46
2019-02-09T05:39:22.301Z,65.65
2019-02-09T05:40:02.889Z,65.65
2019-02-09T05:40:43.507Z,65.46
2019-02-09T05:41:24.116Z,65.94
2019-02-09T05:42:04.723Z,66.03
2019-02-09T05:42:45.319Z,65.65
2019-02-09T05:43:25.909Z,65.46
2019-02-09T05:44:06.493Z,65.46
2019-02-09T05:44:47.079Z,65.94
2019-02-09T05:45:27.663Z,65.46
2019-02-09T05:46:08.261Z,65.65
2019-02-09T05:46:48.863Z,65.84
2019-02-09T05:47:29.467Z,65.46
2019-02-09T05:48:10.057Z,66.03
2019-02-09T05:48:50.697Z,65.65
2019-02-09T05:49:31.309Z,65.65
2019-02-09T05:50:11.920Z,65.94
2019-02-09T05:50:52.517Z,66.03
2019-02-09T05:51:33.135Z,65.46
2019-02-09T05:52:13.719Z,65.94
2019-02-09T05:52:54.343Z,65.46
2019-02-09T05:53:34.944Z,65.55
2019-02-09T05:54:15.568Z,65.75
2019-02-09T05:54:56.192Z,65.65
2019-02-09T05:55:36.795Z,65.55
2019-02-09T05:56:17.383Z,65.65
2019-02-09T05:56:57.985Z,65.46
2019-02-09T05:57:38.595Z,65.65
2019-02-09T05:58:19.192Z,65.46
2019-02-09T05:58:59.781Z,65.55
2019-02-09T05:59:40.392Z,65.55
2019-02-09T06:00:20.997Z,65.46
2019-02-09T06:01:01.587Z,65.46
2019-02-09T06:01:42.182Z,65.46
2019-02-09T06:02:22.765Z,65.65
2019-02-09T06:03:03.355Z,65.46
2019-02-09T06:03:43.941Z,65.46
2019-02-09T06:04:24.550Z,65.75
2019-02-09T06:05:05.153Z,65.46
2019-02-09T06:05:45.756Z,65.55
2019-02-09T06:06:26.359Z,65.65
2019-02-09T06:07:06.957Z,65.55
2019-02-09T06:07:47.563Z,65.55
2019-02-09T06:08:28.167Z,65.46
2019-02-09T06:09:08.755Z,65.46
2019-02-09T06:09:49.390Z,65.65
2019-02-09T06:10:29.981Z,65.65
2019-02-09T06:11:10.572Z,65.55
2019-02-09T06:11:51.177Z,65.65
2019-02-09T06:12:31.855Z,65.84
2019-02-09T06:13:12.455Z,65.55
2019-02-09T06:13:53.061Z,65.65
2019-02-09T06:14:33.663Z,65.46
2019-02-09T06:15:14.247Z,65.46
2019-02-09T06:15:54.839Z,65.94
2019-02-09T06:16:35.425Z,65.65
2019-02-09T06:17:16.031Z,65.55
2019-02-09T06:17:56.621Z,65.46
2019-02-09T06:18:37.237Z,65.55
2019-02-09T06:19:17.823Z,65.84
2019-02-09T06:19:58.433Z,65.65
2019-02-09T06:20:39.022Z,65.75
2019-02-09T06:21:19.617Z,65.55
2019-02-09T06:22:00.223Z,65.65
2019-02-09T06:22:40.809Z,65.94
2019-02-09T06:23:21.415Z,66.03
2019-02-09T06:24:02.024Z,65.65
2019-02-09T06:24:42.624Z,65.55
2019-02-09T06:25:23.442Z,65.84
2019-02-09T06:26:03.894Z,65.84
2019-02-09T06:26:44.438Z,65.65
2019-02-09T06:27:25.061Z,65.75
2019-02-09T06:28:05.671Z,65.65
2019-02-09T06:28:46.327Z,65.84
2019-02-09T06:29:26.927Z,65.75
2019-02-09T06:30:07.518Z,65.65
2019-02-09T06:30:48.117Z,65.75
2019-02-09T06:31:28.721Z,65.65
2019-02-09T06:32:09.324Z,65.84
2019-02-09T06:32:49.936Z,65.84
2019-02-09T06:33:30.531Z,65.65
2019-02-09T06:34:11.137Z,65.75
2019-02-09T06:34:51.733Z,65.84
2019-02-09T06:35:32.348Z,65.84
2019-02-09T06:36:12.943Z,65.94
2019-02-09T06:36:53.549Z,65.75
2019-02-09T06:37:34.153Z,65.75
2019-02-09T06:38:14.753Z,65.75
2019-02-09T06:38:55.366Z,65.75
2019-02-09T06:39:35.963Z,65.55
2019-02-09T06:40:16.562Z,65.75
2019-02-09T06:40:57.163Z,65.65
2019-02-09T06:41:37.753Z,65.46
2019-02-09T06:42:18.349Z,65.46
2019-02-09T06:42:58.944Z,65.65
2019-02-09T06:43:39.542Z,65.55
2019-02-09T06:44:20.142Z,65.46
2019-02-09T06:45:00.845Z,65.55
2019-02-09T06:45:41.436Z,65.75
2019-02-09T06:46:22.031Z,65.55
2019-02-09T06:47:02.633Z,65.55
2019-02-09T06:47:43.231Z,65.55
2019-02-09T06:48:23.831Z,65.55
2019-02-09T06:49:04.447Z,65.55
2019-02-09T06:49:45.048Z,65.46
2019-02-09T06:50:25.639Z,65.46
2019-02-09T06:51:06.243Z,65.65
2019-02-09T06:51:46.835Z,65.46
2019-02-09T06:52:27.443Z,65.75
2019-02-09T06:53:08.056Z,65.46
2019-02-09T06:53:48.667Z,65.55
2019-02-09T06:54:29.277Z,65.55
2019-02-09T06:55:09.880Z,65.65
2019-02-09T06:55:50.473Z,65.75
2019-02-09T06:56:31.085Z,65.65
2019-02-09T06:57:11.697Z,65.75
2019-02-09T06:57:52.304Z,66.03
2019-02-09T06:58:32.881Z,65.55
2019-02-09T06:59:13.483Z,65.75
2019-02-09T06:59:54.075Z,65.65
2019-02-09T07:00:34.668Z,65.84
2019-02-09T07:01:15.299Z,65.65
2019-02-09T07:01:55.891Z,65.84
2019-02-09T07:02:36.481Z,65.94
2019-02-09T07:03:17.095Z,66.03
2019-02-09T07:03:57.689Z,65.84
2019-02-09T07:04:38.300Z,65.55
2019-02-09T07:05:18.903Z,65.84
2019-02-09T07:05:59.499Z,65.84
2019-02-09T07:06:40.105Z,65.84
2019-02-09T07:07:20.725Z,65.84
2019-02-09T07:08:01.315Z,65.75
2019-02-09T07:08:41.931Z,65.55
2019-02-09T07:09:22.539Z,65.84
2019-02-09T07:10:03.143Z,65.55
2019-02-09T07:10:43.761Z,65.55
2019-02-09T07:11:24.373Z,65.75
2019-02-09T07:12:04.967Z,65.75
2019-02-09T07:12:45.555Z,65.94
2019-02-09T07:13:26.158Z,65.75
2019-02-09T07:14:06.781Z,65.75
2019-02-09T07:14:47.379Z,65.75
2019-02-09T07:15:27.963Z,65.75
2019-02-09T07:16:08.583Z,65.75
2019-02-09T07:16:49.177Z,66.03
2019-02-09T07:17:29.767Z,65.75
2019-02-09T07:18:10.357Z,65.94
2019-02-09T07:18:50.961Z,65.94
2019-02-09T07:19:31.587Z,65.94
2019-02-09T07:20:12.195Z,65.75
2019-02-09T07:20:52.799Z,65.36
2019-02-09T07:21:33.426Z,65.46
2019-02-09T07:22:13.996Z,65.36
2019-02-09T07:22:54.588Z,65.55
2019-02-09T07:23:35.245Z,65.36
2019-02-09T07:24:15.828Z,65.55
2019-02-09T07:24:56.495Z,65.46
2019-02-09T07:25:37.112Z,65.94
2019-02-09T07:26:17.699Z,65.55
2019-02-09T07:26:58.303Z,65.75
2019-02-09T07:27:39.178Z,65.65
2019-02-09T07:28:19.766Z,65.75
2019-02-09T07:29:00.361Z,65.55
2019-02-09T07:29:40.977Z,65.17
2019-02-09T07:30:21.599Z,65.65
2019-02-09T07:31:02.260Z,66.03
2019-02-09T07:31:42.863Z,65.26
2019-02-09T07:32:23.507Z,66.03
2019-02-09T07:33:04.183Z,65.94
2019-02-09T07:33:44.785Z,65.94
2019-02-09T07:34:25.441Z,65.36
2019-02-09T07:35:06.048Z,65.26
2019-02-09T07:35:46.643Z,65.36
2019-02-09T07:36:27.238Z,65.17
2019-02-09T07:37:07.849Z,65.17
2019-02-09T07:37:48.523Z,65.26
2019-02-09T07:38:29.102Z,64.89
2019-02-09T07:39:09.691Z,65.36
2019-02-09T07:39:50.299Z,64.89
2019-02-09T07:40:30.895Z,65.17
2019-02-09T07:41:11.511Z,65.08
2019-02-09T07:41:52.113Z,65.17
2019-02-09T07:42:32.743Z,65.08
2019-02-09T07:43:13.355Z,64.98
2019-02-09T07:43:53.945Z,64.98
2019-02-09T07:44:34.537Z,64.98
2019-02-09T07:45:15.149Z,64.98
2019-02-09T07:45:55.757Z,65.26
2019-02-09T07:46:36.391Z,65.17
2019-02-09T07:47:17.064Z,65.36
2019-02-09T07:47:57.700Z,65.08
2019-02-09T07:48:38.413Z,65.08
2019-02-09T07:49:19.017Z,65.08
2019-02-09T07:49:59.620Z,65.17
2019-02-09T07:50:40.209Z,65.46
2019-02-09T07:51:20.802Z,65.36
2019-02-09T07:52:01.405Z,65.36
2019-02-09T07:52:41.987Z,65.36
2019-02-09T07:53:22.648Z,65.46
2019-02-09T07:54:03.271Z,65.26
2019-02-09T07:54:43.879Z,64.98
2019-02-09T07:55:24.501Z,65.08
2019-02-09T07:56:05.101Z,65.17
2019-02-09T07:56:45.711Z,64.98
2019-02-09T07:57:26.305Z,64.89
2019-02-09T07:58:06.907Z,64.79
2019-02-09T07:58:47.507Z,64.98
2019-02-09T07:59:28.113Z,65.26
2019-02-09T08:00:08.751Z,64.98
2019-02-09T08:00:49.363Z,64.89
2019-02-09T08:01:30.057Z,64.98
2019-02-09T08:02:10.653Z,64.89
2019-02-09T08:02:51.267Z,65.36
2019-02-09T08:03:31.937Z,64.5
2019-02-09T08:04:12.599Z,64.89
2019-02-09T08:04:53.219Z,65.46
2019-02-09T08:05:33.829Z,64.89
2019-02-09T08:06:14.435Z,64.69
2019-02-09T08:06:55.045Z,64.98
2019-02-09T08:07:35.655Z,64.59
2019-02-09T08:08:16.281Z,64.79
2019-02-09T08:08:56.877Z,64.79
2019-02-09T08:09:37.486Z,64.59
2019-02-09T08:10:18.079Z,64.69
2019-02-09T08:10:58.729Z,64.59
2019-02-09T08:11:39.359Z,64.98
2019-02-09T08:12:19.957Z,65.08
2019-02-09T08:13:00.563Z,64.69
2019-02-09T08:13:41.173Z,65.08
2019-02-09T08:14:21.781Z,64.98
2019-02-09T08:15:02.421Z,65.08
2019-02-09T08:15:43.018Z,64.89
2019-02-09T08:16:23.625Z,65.08
2019-02-09T08:17:04.557Z,65.08
2019-02-09T08:17:45.220Z,64.98
2019-02-09T08:18:25.875Z,64.89
2019-02-09T08:19:06.490Z,64.98
2019-02-09T08:19:47.143Z,65.17
2019-02-09T08:20:27.745Z,65.36
2019-02-09T08:21:08.329Z,65.17
2019-02-09T08:21:48.935Z,64.79
2019-02-09T08:22:29.533Z,65.26
2019-02-09T08:23:10.119Z,64.69
2019-02-09T08:23:50.707Z,64.79
2019-02-09T08:24:31.335Z,64.31
2019-02-09T08:25:11.946Z,64.5
2019-02-09T08:25:52.555Z,64.4
2019-02-09T08:26:33.158Z,64.59
2019-02-09T08:27:13.749Z,64.4
2019-02-09T08:27:54.343Z,64.4
2019-02-09T08:28:34.943Z,64.59
2019-02-09T08:29:15.567Z,64.4
2019-02-09T08:29:56.173Z,64.31
2019-02-09T08:30:36.795Z,64.31
2019-02-09T08:31:17.401Z,64.31
2019-02-09T08:31:58.001Z,64.31
2019-02-09T08:32:38.593Z,64.22
2019-02-09T08:33:19.193Z,64.69
2019-02-09T08:33:59.809Z,64.59
2019-02-09T08:34:40.421Z,64.22
2019-02-09T08:35:21.017Z,64.02
2019-02-09T08:36:01.665Z,64.31
2019-02-09T08:36:42.267Z,64.31
2019-02-09T08:37:22.885Z,64.31
2019-02-09T08:38:03.445Z,64.22
2019-02-09T08:38:44.039Z,64.31
2019-02-09T08:39:24.721Z,64.59
2019-02-09T08:40:05.336Z,64.02
2019-02-09T08:40:45.931Z,64.59
2019-02-09T08:41:26.542Z,64.59
2019-02-09T08:42:07.259Z,64.4
2019-02-09T08:42:47.846Z,64.4
2019-02-09T08:43:28.439Z,64.22
2019-02-09T08:44:09.051Z,64.4
2019-02-09T08:44:49.663Z,64.12
2019-02-09T08:45:30.267Z,64.31